createdAt,value
2023-09-08T00:01:34.608Z,21.32
2023-09-08T00:04:37.477Z,21.31
2023-09-08T00:07:40.323Z,21.29
2023-09-08T00:10:43.176Z,21.34
2023-09-08T00:13:47.453Z,21.32
2023-09-08T00:16:50.442Z,21.32
2023-09-08T00:19:53.310Z,21.31
2023-09-08T00:22:56.235Z,21.32
2023-09-08T00:25:59.925Z,21.33
2023-09-08T00:29:04.204Z,21.36
2023-09-08T00:32:07.239Z,21.33
2023-09-08T00:35:13.114Z,21.32
2023-09-08T00:38:16.045Z,21.36
2023-09-08T00:41:18.923Z,21.33
2023-09-08T00:44:23.108Z,21.34
2023-09-08T00:47:26.048Z,21.36
2023-09-08T00:50:28.994Z,21.35
2023-09-08T00:53:31.877Z,21.30
2023-09-08T00:56:35.115Z,21.27
2023-09-08T00:59:39.651Z,21.26
2023-09-08T01:02:42.582Z,21.23
2023-09-08T01:05:47.911Z,21.19
2023-09-08T01:08:51.267Z,21.16
2023-09-08T01:11:56.652Z,21.16
2023-09-08T01:15:01.244Z,21.15
2023-09-08T01:18:04.294Z,21.17
2023-09-08T01:21:27.789Z,21.17
2023-09-08T01:24:40.271Z,21.17
2023-09-08T01:27:46.933Z,21.18
2023-09-08T01:30:50.079Z,21.17
2023-09-08T01:33:53.288Z,21.17
2023-09-08T01:36:57.106Z,21.15
2023-09-08T01:39:59.940Z,21.13
2023-09-08T01:43:04.324Z,21.14
2023-09-08T01:46:07.167Z,21.11
2023-09-08T01:49:10.089Z,21.12
2023-09-08T01:52:13.142Z,21.10
2023-09-08T01:55:17.354Z,21.10
2023-09-08T01:58:21.569Z,21.07
2023-09-08T02:01:24.378Z,21.07
2023-09-08T02:04:27.240Z,21.09
2023-09-08T02:07:30.146Z,21.07
2023-09-08T02:10:33.117Z,21.06
2023-09-08T02:13:37.284Z,21.04
2023-09-08T02:16:41.014Z,21.03
2023-09-08T02:19:43.972Z,21.05
2023-09-08T02:22:49.101Z,21.00
2023-09-08T02:25:51.900Z,21.00
2023-09-08T02:28:56.053Z,21.01
2023-09-08T02:31:58.795Z,20.98
2023-09-08T02:35:01.662Z,20.99
2023-09-08T02:38:04.548Z,20.98
2023-09-08T02:41:07.791Z,20.97
2023-09-08T02:44:11.902Z,21.04
2023-09-08T02:47:14.790Z,20.98
2023-09-08T02:50:17.582Z,20.93
2023-09-08T02:53:20.336Z,20.94
2023-09-08T02:56:23.145Z,20.92
2023-09-08T02:59:27.291Z,20.93
2023-09-08T03:02:30.288Z,20.94
2023-09-08T03:05:33.964Z,20.92
2023-09-08T03:08:38.079Z,20.89
2023-09-08T03:11:40.978Z,20.89
2023-09-08T03:14:46.023Z,20.95
2023-09-08T03:17:48.845Z,20.90
2023-09-08T03:20:51.871Z,20.97
2023-09-08T03:23:54.709Z,20.96
2023-09-08T03:26:59.074Z,20.94
2023-09-08T03:30:04.210Z,20.91
2023-09-08T03:33:07.171Z,20.87
2023-09-08T03:36:10.370Z,20.90
2023-09-08T03:39:13.211Z,20.89
2023-09-08T03:42:16.005Z,20.89
2023-09-08T03:45:20.276Z,20.85
2023-09-08T03:48:23.107Z,20.86
2023-09-08T03:51:25.863Z,20.82
2023-09-08T03:54:28.683Z,20.85
2023-09-08T03:57:31.463Z,20.83
2023-09-08T04:00:35.657Z,20.82
2023-09-08T04:03:38.772Z,20.78
2023-09-08T04:06:41.851Z,20.77
2023-09-08T04:09:44.748Z,20.79
2023-09-08T04:12:47.578Z,20.94
2023-09-08T04:15:51.953Z,20.91
2023-09-08T04:18:56.741Z,20.88
2023-09-08T04:21:59.674Z,20.85
2023-09-08T04:25:02.533Z,20.83
2023-09-08T04:28:05.856Z,20.85
2023-09-08T04:31:10.047Z,20.90
2023-09-08T04:34:12.994Z,20.92
2023-09-08T04:37:16.628Z,20.90
2023-09-08T04:40:19.385Z,20.90
2023-09-08T04:43:22.180Z,20.90
2023-09-08T04:46:26.353Z,20.94
2023-09-08T04:49:29.858Z,20.91
2023-09-08T04:52:32.679Z,20.90
2023-09-08T04:55:35.475Z,20.89
2023-09-08T04:58:38.265Z,20.91
2023-09-08T05:01:42.405Z,20.93
2023-09-08T05:04:45.279Z,20.93
2023-09-08T05:07:49.185Z,20.92
2023-09-08T05:10:51.986Z,20.94
2023-09-08T05:13:54.735Z,20.96
2023-09-08T05:16:59.087Z,20.97
2023-09-08T05:20:01.853Z,20.98
2023-09-08T05:23:04.739Z,20.98
2023-09-08T05:26:07.531Z,20.97
2023-09-08T05:29:11.055Z,20.98
2023-09-08T05:32:15.267Z,21.00
2023-09-08T05:35:18.121Z,20.97
2023-09-08T05:38:20.952Z,21.00
2023-09-08T05:41:23.739Z,21.00
2023-09-08T05:44:26.886Z,21.00
2023-09-08T05:47:32.284Z,21.03
2023-09-08T05:50:35.139Z,21.05
2023-09-08T05:53:40.692Z,21.04
2023-09-08T05:56:43.526Z,21.03
2023-09-08T05:59:46.405Z,21.05
2023-09-08T06:02:50.818Z,21.06
2023-09-08T06:05:53.752Z,21.04
2023-09-08T06:08:56.609Z,21.07
2023-09-08T06:11:59.355Z,21.11
2023-09-08T06:15:02.199Z,21.06
2023-09-08T06:18:06.859Z,21.06
2023-09-08T06:21:09.875Z,21.05
2023-09-08T06:24:12.806Z,21.08
2023-09-08T06:27:16.411Z,21.10
2023-09-08T06:30:19.426Z,21.08
2023-09-08T06:33:24.735Z,21.11
2023-09-08T06:36:27.798Z,21.07
2023-09-08T06:39:30.906Z,21.10
2023-09-08T06:42:33.824Z,21.11
2023-09-08T06:45:36.709Z,21.11
2023-09-08T06:48:40.842Z,21.08
2023-09-08T06:51:43.606Z,21.11
2023-09-08T06:54:47.051Z,21.12
2023-09-08T06:57:49.963Z,21.13
2023-09-08T07:00:55.622Z,21.10
2023-09-08T07:04:00.148Z,21.07
2023-09-08T07:07:05.029Z,21.13
2023-09-08T07:10:08.545Z,21.14
2023-09-08T07:13:11.775Z,21.13
2023-09-08T07:16:14.792Z,21.16
2023-09-08T07:19:18.987Z,21.17
2023-09-08T07:22:21.798Z,21.16
2023-09-08T07:25:24.657Z,21.17
2023-09-08T07:28:27.508Z,21.17
2023-09-08T07:31:30.268Z,21.17
2023-09-08T07:34:34.515Z,21.18
2023-09-08T07:37:37.308Z,21.20
2023-09-08T07:40:40.196Z,21.22
2023-09-08T07:43:43.931Z,21.21
2023-09-08T07:46:47.377Z,21.22
2023-09-08T07:49:51.572Z,21.21
2023-09-08T07:52:55.236Z,21.21
2023-09-08T07:55:58.053Z,21.23
2023-09-08T07:59:00.925Z,21.24
2023-09-08T08:02:03.958Z,21.24
2023-09-08T08:05:10.241Z,21.25
2023-09-08T08:08:13.660Z,21.25
2023-09-08T08:11:17.294Z,21.25
2023-09-08T08:14:20.147Z,21.25
2023-09-08T08:17:23.057Z,21.25
2023-09-08T08:20:27.423Z,21.25
2023-09-08T08:23:30.251Z,21.26
2023-09-08T08:26:34.191Z,21.26
2023-09-08T08:29:37.057Z,21.30
2023-09-08T08:32:40.079Z,21.31
2023-09-08T08:35:50.491Z,21.31
2023-09-08T08:38:53.301Z,21.33
2023-09-08T08:41:56.151Z,21.32
2023-09-08T08:44:59.827Z,21.34
2023-09-08T08:48:03.893Z,21.32
2023-09-08T08:51:10.470Z,21.36
2023-09-08T08:54:13.699Z,21.34
2023-09-08T08:57:17.202Z,21.34
2023-09-08T09:00:20.394Z,21.40
2023-09-08T09:03:23.487Z,21.39
2023-09-08T09:06:27.840Z,21.42
2023-09-08T09:09:30.774Z,21.45
2023-09-08T09:12:33.588Z,21.43
2023-09-08T09:15:36.375Z,21.46
2023-09-08T09:18:55.357Z,21.44
2023-09-08T09:22:00.095Z,21.47
2023-09-08T09:25:06.543Z,21.50
2023-09-08T09:28:09.465Z,21.48
2023-09-08T09:31:12.428Z,21.53
2023-09-08T09:34:15.265Z,21.51
2023-09-08T09:37:20.381Z,21.54
2023-09-08T09:40:23.268Z,21.56
2023-09-08T09:43:26.210Z,21.56
2023-09-08T09:46:30.135Z,21.61
2023-09-08T09:49:33.680Z,21.60
2023-09-08T09:52:41.031Z,21.60
2023-09-08T09:55:44.847Z,21.61
2023-09-08T09:58:48.838Z,21.64
2023-09-08T10:01:52.114Z,21.63
2023-09-08T10:04:55.605Z,21.64
2023-09-08T10:08:00.079Z,21.64
2023-09-08T10:11:06.241Z,21.61
2023-09-08T10:14:12.302Z,21.64
2023-09-08T10:17:18.588Z,21.69
2023-09-08T10:20:22.505Z,21.64
2023-09-08T10:23:29.814Z,21.68
2023-09-08T10:26:33.162Z,21.69
2023-09-08T10:29:36.833Z,21.71
2023-09-08T10:32:42.525Z,21.73
2023-09-08T10:35:45.617Z,21.73
2023-09-08T10:38:52.085Z,21.73
2023-09-08T10:42:15.121Z,21.74
2023-09-08T10:45:18.812Z,21.77
2023-09-08T10:48:21.777Z,21.79
2023-09-08T10:51:26.846Z,21.83
2023-09-08T10:54:46.865Z,21.84
2023-09-08T10:57:49.868Z,21.86
2023-09-08T11:00:55.507Z,21.88
2023-09-08T11:04:00.124Z,21.91
2023-09-08T11:07:03.663Z,21.90
2023-09-08T11:10:08.685Z,21.91
2023-09-08T11:13:12.674Z,21.92
2023-09-08T11:16:16.114Z,21.91
2023-09-08T11:19:18.985Z,21.93
2023-09-08T11:22:24.944Z,21.93
2023-09-08T11:25:29.087Z,21.99
2023-09-08T11:28:32.029Z,21.98
2023-09-08T11:31:35.884Z,22.00
2023-09-08T11:34:39.082Z,22.00
2023-09-08T11:37:42.696Z,21.99
2023-09-08T11:40:47.125Z,22.00
2023-09-08T11:43:50.065Z,22.02
2023-09-08T11:46:53.116Z,22.04
2023-09-08T11:49:56.348Z,22.05
2023-09-08T11:53:00.208Z,22.06
2023-09-08T11:56:04.706Z,22.07
2023-09-08T11:59:07.593Z,22.10
2023-09-08T12:02:10.432Z,22.11
2023-09-08T12:05:22.514Z,22.13
2023-09-08T12:08:27.245Z,22.13
2023-09-08T12:11:35.986Z,22.14
2023-09-08T12:14:42.846Z,22.15
2023-09-08T12:17:50.354Z,22.20
2023-09-08T12:21:05.867Z,22.21
2023-09-08T12:24:08.958Z,22.20
2023-09-08T12:27:13.216Z,22.23
2023-09-08T12:30:19.148Z,22.22
2023-09-08T12:33:22.391Z,22.24
2023-09-08T12:36:25.604Z,22.25
2023-09-08T12:39:28.461Z,22.29
2023-09-08T12:42:32.655Z,22.29
2023-09-08T12:45:38.282Z,22.30
2023-09-08T12:48:41.116Z,22.30
2023-09-08T12:51:44.034Z,22.32
2023-09-08T12:54:46.807Z,22.38
2023-09-08T12:57:53.322Z,22.36
2023-09-08T13:00:56.144Z,22.37
2023-09-08T13:03:58.992Z,22.37
2023-09-08T13:07:02.696Z,22.39
2023-09-08T13:10:05.961Z,22.40
2023-09-08T13:13:10.177Z,22.46
2023-09-08T13:16:13.096Z,22.53
2023-09-08T13:19:15.967Z,22.43
2023-09-08T13:22:18.777Z,22.40
2023-09-08T13:25:21.781Z,22.42
2023-09-08T13:28:26.054Z,22.42
2023-09-08T13:31:28.900Z,22.51
2023-09-08T13:34:31.805Z,22.58
2023-09-08T13:37:35.565Z,22.51
2023-09-08T13:40:38.558Z,22.56
2023-09-08T13:43:45.622Z,22.50
2023-09-08T13:46:50.566Z,22.55
2023-09-08T13:49:55.460Z,22.55
2023-09-08T13:53:01.665Z,22.52
2023-09-08T13:56:09.197Z,22.53
2023-09-08T13:59:18.431Z,22.53
2023-09-08T14:05:29.643Z,22.52
2023-09-08T14:09:09.661Z,22.54
2023-09-08T14:15:08.706Z,22.59
2023-09-08T14:18:11.711Z,22.57
2023-09-08T14:21:14.715Z,22.57
2023-09-08T14:24:17.559Z,22.55
2023-09-08T14:27:20.712Z,22.54
2023-09-08T14:30:24.943Z,22.54
2023-09-08T14:33:27.818Z,22.51
2023-09-08T14:36:30.672Z,22.51
2023-09-08T14:39:33.452Z,22.51
2023-09-08T14:42:36.234Z,22.49
2023-09-08T14:45:40.489Z,22.53
2023-09-08T14:48:43.407Z,22.51
2023-09-08T14:51:46.251Z,22.47
2023-09-08T14:54:49.101Z,22.47
2023-09-08T14:57:51.956Z,22.43
2023-09-08T15:00:56.249Z,22.47
2023-09-08T15:03:59.232Z,22.46
2023-09-08T15:07:02.095Z,22.43
2023-09-08T15:10:05.620Z,22.39
2023-09-08T15:13:08.388Z,22.41
2023-09-08T15:16:12.665Z,22.41
2023-09-08T15:19:15.540Z,22.37
2023-09-08T15:22:18.573Z,22.36
2023-09-08T15:25:21.977Z,22.36
2023-09-08T15:28:24.815Z,22.35
2023-09-08T15:31:29.257Z,22.38
2023-09-08T15:34:32.179Z,22.33
2023-09-08T15:37:35.358Z,22.32
2023-09-08T15:40:39.716Z,22.30
2023-09-08T15:43:42.882Z,22.28
2023-09-08T15:46:47.373Z,22.30
2023-09-08T15:49:50.256Z,22.25
2023-09-08T15:52:53.006Z,22.31
2023-09-08T15:55:56.729Z,22.24
2023-09-08T15:59:00.013Z,22.23
2023-09-08T16:02:04.464Z,22.22
2023-09-08T16:05:08.086Z,22.18
2023-09-08T16:08:11.648Z,22.17
2023-09-08T16:11:14.843Z,22.17
2023-09-08T16:14:17.695Z,22.13
2023-09-08T16:17:21.970Z,22.13
2023-09-08T16:20:24.854Z,22.11
2023-09-08T16:23:27.970Z,22.10
2023-09-08T16:26:30.880Z,22.09
2023-09-08T16:29:33.713Z,22.07
2023-09-08T16:32:39.058Z,22.07
2023-09-08T16:35:43.439Z,22.09
2023-09-08T16:38:46.224Z,22.14
2023-09-08T16:41:49.005Z,22.02
2023-09-08T16:44:51.847Z,21.86
2023-09-08T16:47:56.094Z,21.96
2023-09-08T16:50:58.891Z,21.83
2023-09-08T16:54:01.786Z,21.86
2023-09-08T16:57:04.872Z,21.85
2023-09-08T17:00:08.658Z,21.83
2023-09-08T17:03:13.149Z,21.86
2023-09-08T17:06:16.207Z,21.84
2023-09-08T17:09:19.580Z,21.72
2023-09-08T17:12:22.424Z,21.74
2023-09-08T17:15:25.354Z,21.78
2023-09-08T17:18:30.755Z,21.85
2023-09-08T17:21:33.648Z,21.92
2023-09-08T17:24:36.538Z,21.86
2023-09-08T17:27:39.459Z,21.88
2023-09-08T17:30:42.608Z,21.83
2023-09-08T17:33:46.779Z,21.81
2023-09-08T17:36:49.609Z,21.81
2023-09-08T17:39:52.391Z,21.16
2023-09-08T17:42:55.157Z,20.92
2023-09-08T17:45:58.170Z,20.75
2023-09-08T17:49:02.975Z,20.69
2023-09-08T17:52:06.265Z,20.55
2023-09-08T17:55:09.470Z,20.47
2023-09-08T17:58:12.288Z,20.37
2023-09-08T18:01:15.999Z,20.39
2023-09-08T18:04:20.602Z,20.35
2023-09-08T18:07:23.743Z,20.31
2023-09-08T18:10:26.650Z,20.24
2023-09-08T18:13:29.589Z,20.20
2023-09-08T18:16:34.892Z,20.23
2023-09-08T18:19:41.173Z,20.34
2023-09-08T18:22:44.029Z,20.43
2023-09-08T18:25:46.896Z,20.36
2023-09-08T18:28:49.873Z,20.33
2023-09-08T18:31:52.836Z,20.33
2023-09-08T18:34:57.146Z,20.32
2023-09-08T18:38:00.683Z,20.33
2023-09-08T18:41:03.841Z,20.19
2023-09-08T18:44:06.707Z,20.13
2023-09-08T18:47:09.489Z,20.20
2023-09-08T18:50:13.920Z,20.18
2023-09-08T18:53:16.825Z,20.10
2023-09-08T18:56:19.703Z,20.12
2023-09-08T18:59:22.551Z,20.11
2023-09-08T19:02:25.894Z,20.10
2023-09-08T19:05:30.347Z,20.08
2023-09-08T19:08:33.406Z,20.05
2023-09-08T19:11:36.302Z,20.02
2023-09-08T19:14:39.197Z,19.91
2023-09-08T19:17:42.145Z,19.96
2023-09-08T19:20:46.478Z,19.97
2023-09-08T19:23:50.988Z,19.96
2023-09-08T19:26:53.925Z,19.95
2023-09-08T19:29:57.010Z,19.95
2023-09-08T19:33:00.045Z,19.91
2023-09-08T19:36:04.698Z,19.91
2023-09-08T19:39:08.102Z,19.83
2023-09-08T19:42:11.140Z,19.78
2023-09-08T19:45:13.982Z,19.83
2023-09-08T19:48:16.861Z,19.82
2023-09-08T19:51:22.965Z,19.77
2023-09-08T19:54:26.021Z,19.75
2023-09-08T19:57:28.843Z,19.75
2023-09-08T20:00:31.744Z,19.69
2023-09-08T20:03:35.535Z,19.66
2023-09-08T20:06:40.918Z,19.68
2023-09-08T20:09:43.769Z,19.64
2023-09-08T20:12:48.314Z,19.66
2023-09-08T20:15:59.582Z,19.65
2023-09-08T20:19:02.524Z,19.59
2023-09-08T20:22:06.805Z,19.60
2023-09-08T20:25:10.641Z,19.52
2023-09-08T20:28:13.899Z,19.43
2023-09-08T20:31:17.692Z,19.48
2023-09-08T20:34:20.760Z,19.51
2023-09-08T20:37:24.974Z,19.45
2023-09-08T20:40:27.811Z,19.40
2023-09-08T20:43:30.619Z,19.39
2023-09-08T20:46:33.535Z,19.36
2023-09-08T20:49:37.422Z,19.34
2023-09-08T20:52:41.704Z,19.34
2023-09-08T20:55:44.486Z,19.31
2023-09-08T20:58:47.318Z,19.33
2023-09-08T21:01:50.178Z,19.28
2023-09-08T21:04:53.033Z,19.31
2023-09-08T21:07:57.236Z,19.25
2023-09-08T21:11:00.338Z,19.29
2023-09-08T21:14:03.197Z,19.30
2023-09-08T21:17:06.422Z,19.26
2023-09-08T21:20:10.068Z,19.24
2023-09-08T21:23:14.350Z,19.25
2023-09-08T21:26:18.102Z,20.07
2023-09-08T21:29:20.917Z,20.31
2023-09-08T21:32:24.558Z,20.29
2023-09-08T21:35:27.716Z,20.35
2023-09-08T21:38:31.955Z,20.38
2023-09-08T21:41:35.388Z,20.38
2023-09-08T21:44:38.292Z,20.39
2023-09-08T21:47:41.259Z,20.44
2023-09-08T21:50:44.074Z,20.46
2023-09-08T21:53:48.266Z,20.45
2023-09-08T21:56:51.841Z,20.52
2023-09-08T21:59:54.622Z,20.54
2023-09-08T22:02:57.641Z,20.56
2023-09-08T22:06:00.638Z,20.58
2023-09-08T22:09:06.076Z,20.58
2023-09-08T22:12:08.994Z,20.59
2023-09-08T22:15:12.198Z,20.59
2023-09-08T22:18:15.043Z,20.62
2023-09-08T22:21:17.846Z,20.63
2023-09-08T22:24:22.076Z,20.64
2023-09-08T22:27:24.928Z,20.73
2023-09-08T22:30:27.836Z,20.68
2023-09-08T22:33:31.555Z,20.68
2023-09-08T22:36:34.522Z,20.68
2023-09-08T22:39:38.873Z,20.69
2023-09-08T22:42:41.803Z,20.69
2023-09-08T22:45:44.785Z,20.72
2023-09-08T22:48:47.878Z,20.71
2023-09-08T22:51:50.659Z,20.70
2023-09-08T22:55:02.356Z,20.73
2023-09-08T22:58:11.957Z,20.71
2023-09-08T23:01:14.883Z,20.72
2023-09-08T23:04:17.768Z,20.73
2023-09-08T23:07:21.645Z,20.74
2023-09-08T23:10:26.000Z,20.74
2023-09-08T23:13:28.822Z,20.74
2023-09-08T23:16:31.671Z,20.75
2023-09-08T23:19:34.519Z,20.77
2023-09-08T23:22:37.980Z,20.77
2023-09-08T23:25:42.170Z,20.76
2023-09-08T23:28:44.989Z,20.75
2023-09-08T23:31:47.754Z,20.76
2023-09-08T23:34:50.508Z,20.76
2023-09-08T23:37:53.382Z,20.76
2023-09-08T23:40:57.557Z,20.76
2023-09-08T23:44:00.391Z,20.75
2023-09-08T23:47:05.086Z,20.75
2023-09-08T23:50:08.935Z,20.75
2023-09-08T23:53:11.836Z,20.76
2023-09-08T23:56:15.975Z,20.76
2023-09-08T23:59:18.847Z,20.77
